TimeEST,TemperatureF,Dew PointF,Humidity,Sea Level PressureIn,VisibilityMPH,Wind Direction,Wind SpeedMPH,Gust SpeedMPH,PrecipitationIn,Events,Conditions,WindDirDegrees,DateUTC
12:53 AM,57.9,52.0,81,29.86,10.0,SSE,5.8,-,0.03,,Overcast,160,2011-01-01 05:53:00
1:53 AM,59.0,51.1,75,29.82,10.0,SSE,9.2,-,0.00,,Overcast,160,2011-01-01 06:53:00
2:53 AM,59.0,52.0,78,29.81,10.0,SSE,8.1,-,0.00,,Mostly Cloudy,160,2011-01-01 07:53:00
3:53 AM,57.0,55.0,93,29.81,5.0,South,8.1,-,0.09,Rain,Rain,180,2011-01-01 08:53:00
4:53 AM,57.0,55.0,93,29.79,4.0,SSE,6.9,-,0.15,Rain,Rain,150,2011-01-01 09:53:00
5:26 AM,57.2,55.4,94,29.78,6.0,South,9.2,-,0.05,Rain,Light Rain,170,2011-01-01 10:26:00
5:39 AM,57.2,55.4,94,29.80,4.0,West,16.1,21.9,0.08,Rain,Rain,280,2011-01-01 10:39:00
5:47 AM,55.4,55.4,100,29.81,2.5,West,10.4,-,0.13,Rain,Rain,270,2011-01-01 10:47:00
5:53 AM,55.9,55.9,100,29.81,3.0,West,4.6,-,0.15,Rain,Heavy Rain,270,2011-01-01 10:53:00
6:24 AM,55.4,55.4,100,29.83,4.0,Calm,Calm,-,0.04,Rain,Light Rain,0,2011-01-01 11:24:00
6:40 AM,55.4,55.4,100,29.84,3.0,WSW,4.6,-,0.05,Rain,Light Rain,240,2011-01-01 11:40:00
6:53 AM,55.9,55.0,97,29.84,4.0,West,17.3,21.9,0.06,Rain,Light Rain,280,2011-01-01 11:53:00
7:09 AM,53.6,51.8,94,29.86,10.0,WNW,12.7,-,0.01,Rain,Light Rain,300,2011-01-01 12:09:00
7:53 AM,53.1,51.1,93,29.87,10.0,NW,5.8,-,0.01,Rain,Light Rain,320,2011-01-01 12:53:00
8:53 AM,52.0,51.1,97,29.90,4.0,West,4.6,-,0.03,Rain,Light Rain,270,2011-01-01 13:53:00
8:57 AM,51.8,51.8,100,29.90,5.0,Calm,Calm,-,0.00,Rain,Light Rain,0,2011-01-01 13:57:00
9:05 AM,51.8,51.8,100,29.89,7.0,Calm,Calm,-,0.01,Rain,Light Rain,0,2011-01-01 14:05:00
9:13 AM,51.8,51.8,100,29.92,8.0,WNW,23.0,29.9,0.01,Rain,Light Rain,290,2011-01-01 14:13:00
9:37 AM,42.8,39.2,87,29.94,10.0,WNW,15.0,-,0.01,,Overcast,300,2011-01-01 14:37:00
9:53 AM,43.0,35.1,74,29.96,10.0,WNW,16.1,-,0.01,,Overcast,300,2011-01-01 14:53:00
10:53 AM,43.0,33.1,68,29.99,10.0,West,5.8,-,0.00,,Overcast,280,2011-01-01 15:53:00
11:11 AM,42.8,33.8,70,29.99,10.0,West,5.8,-,N/A,,Overcast,280,2011-01-01 16:11:00
11:53 AM,44.1,34.0,68,29.99,10.0,West,6.9,-,N/A,,Overcast,260,2011-01-01 16:53:00
12:53 PM,46.0,37.0,71,29.94,10.0,Calm,Calm,-,N/A,,Overcast,0,2011-01-01 17:53:00
1:53 PM,48.9,30.0,48,29.96,10.0,West,15.0,-,N/A,,Scattered Clouds,270,2011-01-01 18:53:00
2:53 PM,48.0,30.0,50,29.97,10.0,West,9.2,-,N/A,,Mostly Cloudy,280,2011-01-01 19:53:00
3:53 PM,46.9,33.1,59,30.00,10.0,West,10.4,-,N/A,,Overcast,280,2011-01-01 20:53:00
4:53 PM,42.1,25.0,51,30.04,10.0,West,10.4,19.6,N/A,,Overcast,280,2011-01-01 21:53:00
5:53 PM,41.0,26.1,55,30.07,10.0,West,10.4,-,N/A,,Overcast,270,2011-01-01 22:53:00
6:53 PM,37.9,19.9,48,30.11,10.0,West,9.2,-,N/A,,Overcast,270,2011-01-01 23:53:00
7:53 PM,36.0,19.9,52,30.14,10.0,West,9.2,-,N/A,,Scattered Clouds,270,2011-01-02 00:53:00
8:53 PM,33.1,21.9,64,30.18,10.0,West,10.4,-,N/A,,Clear,280,2011-01-02 01:53:00
9:53 PM,30.9,18.0,59,30.20,10.0,WNW,9.2,-,N/A,,Clear,290,2011-01-02 02:53:00
10:53 PM,30.0,12.9,49,30.22,10.0,WNW,12.7,-,N/A,,Clear,300,2011-01-02 03:53:00
11:53 PM,28.0,14.0,56,30.22,10.0,WNW,9.2,-,N/A,,Clear,300,2011-01-02 04:53:00